sensor_id;sensor_type;location;lat;lon;timestamp;temperature;humidity
46029;DHT22;31763;48.180;7.904;2023-01-23T00:01:27;-0.80;99.90
46029;DHT22;31763;48.180;7.904;2023-01-23T00:03:56;-0.70;99.90
46029;DHT22;31763;48.180;7.904;2023-01-23T00:06:23;-0.90;99.90
46029;DHT22;31763;48.180;7.904;2023-01-23T00:08:50;-0.90;99.90
46029;DHT22;31763;48.180;7.904;2023-01-23T00:11:20;-0.90;99.90
46029;DHT22;31763;48.180;7.904;2023-01-23T00:13:48;-0.80;99.90
46029;DHT22;31763;48.180;7.904;2023-01-23T00:16:18;-1.00;99.90
46029;DHT22;31763;48.180;7.904;2023-01-23T00:18:47;-0.90;99.90
46029;DHT22;31763;48.180;7.904;2023-01-23T00:21:17;-1.00;99.90
46029;DHT22;31763;48.180;7.904;2023-01-23T00:23:47;-1.00;99.90
46029;DHT22;31763;48.180;7.904;2023-01-23T00:26:19;-1.00;99.90
46029;DHT22;31763;48.180;7.904;2023-01-23T00:28:47;-0.80;99.90
46029;DHT22;31763;48.180;7.904;2023-01-23T00:31:17;-0.90;99.90
46029;DHT22;31763;48.180;7.904;2023-01-23T00:33:54;-0.90;99.90
46029;DHT22;31763;48.180;7.904;2023-01-23T00:36:23;-1.10;99.90
46029;DHT22;31763;48.180;7.904;2023-01-23T00:38:52;-1.10;99.90
46029;DHT22;31763;48.180;7.904;2023-01-23T00:41:19;-1.10;99.90
46029;DHT22;31763;48.180;7.904;2023-01-23T00:43:46;-1.20;99.90
46029;DHT22;31763;48.180;7.904;2023-01-23T00:46:13;-1.30;99.90
46029;DHT22;31763;48.180;7.904;2023-01-23T00:48:40;-1.20;99.90
46029;DHT22;31763;48.180;7.904;2023-01-23T00:51:07;-1.20;99.90
46029;DHT22;31763;48.180;7.904;2023-01-23T00:53:34;-1.30;99.90
46029;DHT22;31763;48.180;7.904;2023-01-23T00:56:01;-1.10;99.90
46029;DHT22;31763;48.180;7.904;2023-01-23T00:58:28;-1.30;99.90
46029;DHT22;31763;48.180;7.904;2023-01-23T01:00:54;-1.30;99.90
46029;DHT22;31763;48.180;7.904;2023-01-23T01:03:21;-1.30;99.90
46029;DHT22;31763;48.180;7.904;2023-01-23T01:05:51;-1.40;99.90
46029;DHT22;31763;48.180;7.904;2023-01-23T01:08:18;-1.40;99.90
46029;DHT22;31763;48.180;7.904;2023-01-23T01:10:45;-1.30;99.90
46029;DHT22;31763;48.180;7.904;2023-01-23T01:13:11;-1.40;99.90
46029;DHT22;31763;48.180;7.904;2023-01-23T01:15:38;-1.30;99.90
46029;DHT22;31763;48.180;7.904;2023-01-23T01:18:05;-1.10;99.90
46029;DHT22;31763;48.180;7.904;2023-01-23T01:20:32;-0.90;99.90
46029;DHT22;31763;48.180;7.904;2023-01-23T01:22:59;-0.90;99.90
46029;DHT22;31763;48.180;7.904;2023-01-23T01:25:26;-1.00;99.90
46029;DHT22;31763;48.180;7.904;2023-01-23T01:27:53;-1.00;99.90
46029;DHT22;31763;48.180;7.904;2023-01-23T01:30:21;-1.20;99.90
46029;DHT22;31763;48.180;7.904;2023-01-23T01:32:49;-1.10;99.90
46029;DHT22;31763;48.180;7.904;2023-01-23T01:35:16;-1.20;99.90
46029;DHT22;31763;48.180;7.904;2023-01-23T01:37:42;-1.20;99.90
46029;DHT22;31763;48.180;7.904;2023-01-23T01:40:16;-1.00;99.90
46029;DHT22;31763;48.180;7.904;2023-01-23T01:42:58;-1.10;99.90
46029;DHT22;31763;48.180;7.904;2023-01-23T01:51:29;-1.00;99.90
46029;DHT22;31763;48.180;7.904;2023-01-23T01:59:56;-1.10;99.90
46029;DHT22;31763;48.180;7.904;2023-01-23T02:02:31;-1.10;99.90
46029;DHT22;31763;48.180;7.904;2023-01-23T02:05:06;-1.20;99.90
46029;DHT22;31763;48.180;7.904;2023-01-23T02:10:34;-1.00;99.90
46029;DHT22;31763;48.180;7.904;2023-01-23T02:13:28;-1.10;99.90
46029;DHT22;31763;48.180;7.904;2023-01-23T02:16:02;-1.00;99.90
46029;DHT22;31763;48.180;7.904;2023-01-23T02:18:31;-1.10;99.90
46029;DHT22;31763;48.180;7.904;2023-01-23T02:21:04;-1.10;99.90
46029;DHT22;31763;48.180;7.904;2023-01-23T02:23:45;-1.10;99.90
46029;DHT22;31763;48.180;7.904;2023-01-23T02:26:27;-1.10;99.90
46029;DHT22;31763;48.180;7.904;2023-01-23T02:28:58;-1.20;99.90
46029;DHT22;31763;48.180;7.904;2023-01-23T02:31:26;-1.20;99.90
46029;DHT22;31763;48.180;7.904;2023-01-23T02:33:55;-1.10;99.90
46029;DHT22;31763;48.180;7.904;2023-01-23T02:36:26;-1.10;99.90
46029;DHT22;31763;48.180;7.904;2023-01-23T02:42:02;-1.10;99.90
46029;DHT22;31763;48.180;7.904;2023-01-23T02:44:30;-1.00;99.90
46029;DHT22;31763;48.180;7.904;2023-01-23T02:47:02;-1.10;99.90
46029;DHT22;31763;48.180;7.904;2023-01-23T02:49:31;-1.20;99.90
46029;DHT22;31763;48.180;7.904;2023-01-23T02:51:58;-1.20;99.90
46029;DHT22;31763;48.180;7.904;2023-01-23T02:54:25;-1.20;99.90
46029;DHT22;31763;48.180;7.904;2023-01-23T02:56:52;-1.10;99.90
46029;DHT22;31763;48.180;7.904;2023-01-23T02:59:18;-1.20;99.90
46029;DHT22;31763;48.180;7.904;2023-01-23T03:02:04;-1.00;99.90
46029;DHT22;31763;48.180;7.904;2023-01-23T03:04:31;-1.10;99.90
46029;DHT22;31763;48.180;7.904;2023-01-23T03:06:58;-1.00;99.90
46029;DHT22;31763;48.180;7.904;2023-01-23T03:09:26;-1.10;99.90
46029;DHT22;31763;48.180;7.904;2023-01-23T03:11:52;-1.00;99.90
46029;DHT22;31763;48.180;7.904;2023-01-23T03:14:21;-0.90;99.90
46029;DHT22;31763;48.180;7.904;2023-01-23T03:16:48;-0.90;99.90
46029;DHT22;31763;48.180;7.904;2023-01-23T03:19:18;-1.00;99.90
46029;DHT22;31763;48.180;7.904;2023-01-23T03:21:48;-1.00;99.90
46029;DHT22;31763;48.180;7.904;2023-01-23T03:24:15;-1.00;99.90
46029;DHT22;31763;48.180;7.904;2023-01-23T03:26:44;-1.00;99.90
46029;DHT22;31763;48.180;7.904;2023-01-23T03:29:18;-1.10;99.90
46029;DHT22;31763;48.180;7.904;2023-01-23T03:32:06;-1.20;99.90
46029;DHT22;31763;48.180;7.904;2023-01-23T03:34:33;-1.00;99.90
46029;DHT22;31763;48.180;7.904;2023-01-23T03:37:01;-0.90;99.90
46029;DHT22;31763;48.180;7.904;2023-01-23T03:39:28;-1.10;99.90
46029;DHT22;31763;48.180;7.904;2023-01-23T03:42:14;-0.90;99.90
46029;DHT22;31763;48.180;7.904;2023-01-23T03:44:41;-1.00;99.90
46029;DHT22;31763;48.180;7.904;2023-01-23T03:47:08;-1.10;99.90
46029;DHT22;31763;48.180;7.904;2023-01-23T03:49:35;-1.00;99.90
46029;DHT22;31763;48.180;7.904;2023-01-23T03:52:03;-0.90;99.90
46029;DHT22;31763;48.180;7.904;2023-01-23T03:54:29;-1.00;99.90
46029;DHT22;31763;48.180;7.904;2023-01-23T03:56:56;-0.90;99.90
46029;DHT22;31763;48.180;7.904;2023-01-23T03:59:23;-0.80;99.90
46029;DHT22;31763;48.180;7.904;2023-01-23T04:01:50;-1.00;99.90
46029;DHT22;31763;48.180;7.904;2023-01-23T04:04:17;-0.90;99.90
46029;DHT22;31763;48.180;7.904;2023-01-23T04:06:44;-0.90;99.90
46029;DHT22;31763;48.180;7.904;2023-01-23T04:09:11;-0.80;99.90
46029;DHT22;31763;48.180;7.904;2023-01-23T04:11:38;-0.70;99.90
46029;DHT22;31763;48.180;7.904;2023-01-23T04:14:05;-0.80;99.90
46029;DHT22;31763;48.180;7.904;2023-01-23T04:16:31;-0.80;99.90
46029;DHT22;31763;48.180;7.904;2023-01-23T04:18:58;-0.90;99.90
46029;DHT22;31763;48.180;7.904;2023-01-23T04:21:25;-0.80;99.90
46029;DHT22;31763;48.180;7.904;2023-01-23T04:23:52;-0.80;99.90
46029;DHT22;31763;48.180;7.904;2023-01-23T04:26:19;-0.70;99.90
46029;DHT22;31763;48.180;7.904;2023-01-23T04:28:45;-0.70;99.90
46029;DHT22;31763;48.180;7.904;2023-01-23T04:31:12;-0.80;99.90
46029;DHT22;31763;48.180;7.904;2023-01-23T04:33:39;-0.50;99.90
46029;DHT22;31763;48.180;7.904;2023-01-23T04:36:06;-0.60;99.90
46029;DHT22;31763;48.180;7.904;2023-01-23T04:38:34;-0.60;99.90
46029;DHT22;31763;48.180;7.904;2023-01-23T04:41:01;-0.70;99.90
46029;DHT22;31763;48.180;7.904;2023-01-23T04:43:29;-0.70;99.90
46029;DHT22;31763;48.180;7.904;2023-01-23T04:45:56;-0.80;99.90
46029;DHT22;31763;48.180;7.904;2023-01-23T04:48:23;-0.80;99.90
46029;DHT22;31763;48.180;7.904;2023-01-23T04:50:50;-0.70;99.90
46029;DHT22;31763;48.180;7.904;2023-01-23T04:53:18;-0.70;99.90
46029;DHT22;31763;48.180;7.904;2023-01-23T04:55:48;-0.60;99.90
46029;DHT22;31763;48.180;7.904;2023-01-23T04:58:16;-0.60;99.90
46029;DHT22;31763;48.180;7.904;2023-01-23T05:00:44;-0.60;99.90
46029;DHT22;31763;48.180;7.904;2023-01-23T05:03:12;-0.70;99.90
46029;DHT22;31763;48.180;7.904;2023-01-23T05:05:39;-0.70;99.90
46029;DHT22;31763;48.180;7.904;2023-01-23T05:08:08;-0.80;99.90
46029;DHT22;31763;48.180;7.904;2023-01-23T05:10:36;-0.80;99.90
46029;DHT22;31763;48.180;7.904;2023-01-23T05:13:03;-0.70;99.90
46029;DHT22;31763;48.180;7.904;2023-01-23T05:15:30;-0.60;99.90
46029;DHT22;31763;48.180;7.904;2023-01-23T05:17:57;-0.50;99.90
46029;DHT22;31763;48.180;7.904;2023-01-23T05:20:24;-0.70;99.90
46029;DHT22;31763;48.180;7.904;2023-01-23T05:22:51;-0.60;99.90
46029;DHT22;31763;48.180;7.904;2023-01-23T05:25:25;-0.50;99.90
46029;DHT22;31763;48.180;7.904;2023-01-23T05:27:53;-0.70;99.90
46029;DHT22;31763;48.180;7.904;2023-01-23T05:30:21;-0.70;99.90
46029;DHT22;31763;48.180;7.904;2023-01-23T05:32:48;-0.60;99.90
46029;DHT22;31763;48.180;7.904;2023-01-23T05:35:16;-0.70;99.90
46029;DHT22;31763;48.180;7.904;2023-01-23T05:37:46;-0.60;99.90
46029;DHT22;31763;48.180;7.904;2023-01-23T05:40:14;-0.60;99.90
46029;DHT22;31763;48.180;7.904;2023-01-23T05:42:40;-0.50;99.90
46029;DHT22;31763;48.180;7.904;2023-01-23T05:45:08;-0.50;99.90
46029;DHT22;31763;48.180;7.904;2023-01-23T05:47:35;-0.60;99.90
46029;DHT22;31763;48.180;7.904;2023-01-23T05:50:04;-0.60;99.90
46029;DHT22;31763;48.180;7.904;2023-01-23T05:52:31;-0.70;99.90
46029;DHT22;31763;48.180;7.904;2023-01-23T05:54:58;-0.60;99.90
46029;DHT22;31763;48.180;7.904;2023-01-23T05:57:25;-0.60;99.90
46029;DHT22;31763;48.180;7.904;2023-01-23T05:59:51;-0.60;99.90
46029;DHT22;31763;48.180;7.904;2023-01-23T06:02:18;-0.70;99.90
46029;DHT22;31763;48.180;7.904;2023-01-23T06:04:48;-0.70;99.90
46029;DHT22;31763;48.180;7.904;2023-01-23T06:07:16;-0.70;99.90
46029;DHT22;31763;48.180;7.904;2023-01-23T06:09:45;-0.60;99.90
46029;DHT22;31763;48.180;7.904;2023-01-23T06:12:12;-0.60;99.90
46029;DHT22;31763;48.180;7.904;2023-01-23T06:14:39;-0.60;99.90
46029;DHT22;31763;48.180;7.904;2023-01-23T06:17:06;-0.60;99.90
46029;DHT22;31763;48.180;7.904;2023-01-23T06:19:33;-0.60;99.90
46029;DHT22;31763;48.180;7.904;2023-01-23T06:22:00;-0.70;99.90
46029;DHT22;31763;48.180;7.904;2023-01-23T06:24:27;-0.70;99.90
46029;DHT22;31763;48.180;7.904;2023-01-23T06:26:53;-0.60;99.90
46029;DHT22;31763;48.180;7.904;2023-01-23T06:29:20;-0.60;99.90
46029;DHT22;31763;48.180;7.904;2023-01-23T06:31:47;-0.60;99.90
46029;DHT22;31763;48.180;7.904;2023-01-23T06:34:15;-0.70;99.90
46029;DHT22;31763;48.180;7.904;2023-01-23T06:36:42;-0.60;99.90
46029;DHT22;31763;48.180;7.904;2023-01-23T06:39:11;-0.70;99.90
46029;DHT22;31763;48.180;7.904;2023-01-23T06:41:39;-0.70;99.90
46029;DHT22;31763;48.180;7.904;2023-01-23T06:44:06;-0.70;99.90
46029;DHT22;31763;48.180;7.904;2023-01-23T06:46:33;-0.60;99.90
46029;DHT22;31763;48.180;7.904;2023-01-23T06:49:00;-0.60;99.90
46029;DHT22;31763;48.180;7.904;2023-01-23T06:51:32;-0.70;99.90
46029;DHT22;31763;48.180;7.904;2023-01-23T06:53:59;-0.60;99.90
46029;DHT22;31763;48.180;7.904;2023-01-23T06:56:26;-0.60;99.90
46029;DHT22;31763;48.180;7.904;2023-01-23T06:58:53;-0.50;99.90
46029;DHT22;31763;48.180;7.904;2023-01-23T07:01:19;-0.50;99.90
46029;DHT22;31763;48.180;7.904;2023-01-23T07:03:47;-0.60;99.90
46029;DHT22;31763;48.180;7.904;2023-01-23T07:06:14;-0.80;99.90
46029;DHT22;31763;48.180;7.904;2023-01-23T07:08:42;-0.70;99.90
46029;DHT22;31763;48.180;7.904;2023-01-23T07:11:09;-0.70;99.90
46029;DHT22;31763;48.180;7.904;2023-01-23T07:13:37;-0.60;99.90
46029;DHT22;31763;48.180;7.904;2023-01-23T07:16:04;-0.60;99.90
46029;DHT22;31763;48.180;7.904;2023-01-23T07:18:31;-0.40;99.90
46029;DHT22;31763;48.180;7.904;2023-01-23T07:20:58;-0.50;99.90
46029;DHT22;31763;48.180;7.904;2023-01-23T07:23:26;-0.50;99.90
46029;DHT22;31763;48.180;7.904;2023-01-23T07:26:01;-0.60;99.90
46029;DHT22;31763;48.180;7.904;2023-01-23T07:28:29;-0.70;99.90
46029;DHT22;31763;48.180;7.904;2023-01-23T07:30:57;-0.70;99.90
46029;DHT22;31763;48.180;7.904;2023-01-23T07:33:25;-0.70;99.90
46029;DHT22;31763;48.180;7.904;2023-01-23T07:35:52;-0.60;99.90
46029;DHT22;31763;48.180;7.904;2023-01-23T07:38:19;-0.60;99.90
46029;DHT22;31763;48.180;7.904;2023-01-23T07:40:49;-0.60;99.90
46029;DHT22;31763;48.180;7.904;2023-01-23T07:43:16;-0.60;99.90
46029;DHT22;31763;48.180;7.904;2023-01-23T07:45:43;-0.50;99.90
46029;DHT22;31763;48.180;7.904;2023-01-23T07:48:10;-0.40;99.90
46029;DHT22;31763;48.180;7.904;2023-01-23T07:50:37;-0.40;99.90
46029;DHT22;31763;48.180;7.904;2023-01-23T07:53:05;-0.50;99.90
46029;DHT22;31763;48.180;7.904;2023-01-23T07:55:33;-0.40;99.90
46029;DHT22;31763;48.180;7.904;2023-01-23T07:58:00;-0.60;99.90
46029;DHT22;31763;48.180;7.904;2023-01-23T08:00:27;-0.60;99.90
46029;DHT22;31763;48.180;7.904;2023-01-23T08:02:56;-0.60;99.90
46029;DHT22;31763;48.180;7.904;2023-01-23T08:05:23;-0.60;99.90
46029;DHT22;31763;48.180;7.904;2023-01-23T08:07:51;-0.70;99.90
46029;DHT22;31763;48.180;7.904;2023-01-23T08:10:37;-0.70;99.90
46029;DHT22;31763;48.180;7.904;2023-01-23T08:13:04;-0.70;99.90
46029;DHT22;31763;48.180;7.904;2023-01-23T08:15:31;-0.70;99.90
46029;DHT22;31763;48.180;7.904;2023-01-23T08:17:58;-0.70;99.90
46029;DHT22;31763;48.180;7.904;2023-01-23T08:20:25;-0.60;99.90
46029;DHT22;31763;48.180;7.904;2023-01-23T08:22:51;-0.40;99.90
46029;DHT22;31763;48.180;7.904;2023-01-23T08:25:18;-0.40;99.90
46029;DHT22;31763;48.180;7.904;2023-01-23T08:27:45;-0.50;99.90
46029;DHT22;31763;48.180;7.904;2023-01-23T08:30:12;-0.50;99.90
46029;DHT22;31763;48.180;7.904;2023-01-23T08:32:39;-0.50;99.90
46029;DHT22;31763;48.180;7.904;2023-01-23T08:35:06;-0.50;99.90
46029;DHT22;31763;48.180;7.904;2023-01-23T08:37:33;-0.60;99.90
46029;DHT22;31763;48.180;7.904;2023-01-23T08:40:00;-0.60;99.90
46029;DHT22;31763;48.180;7.904;2023-01-23T08:42:27;-0.40;99.90
46029;DHT22;31763;48.180;7.904;2023-01-23T08:44:54;-0.50;99.90
46029;DHT22;31763;48.180;7.904;2023-01-23T08:47:21;-0.50;99.90
46029;DHT22;31763;48.180;7.904;2023-01-23T08:49:48;-0.50;99.90
46029;DHT22;31763;48.180;7.904;2023-01-23T08:52:14;-0.50;99.90
46029;DHT22;31763;48.180;7.904;2023-01-23T08:54:41;-0.40;99.90
46029;DHT22;31763;48.180;7.904;2023-01-23T08:57:08;-0.40;99.90
46029;DHT22;31763;48.180;7.904;2023-01-23T08:59:35;-0.40;99.90
46029;DHT22;31763;48.180;7.904;2023-01-23T09:02:02;-0.30;99.90
46029;DHT22;31763;48.180;7.904;2023-01-23T09:04:29;-0.20;99.90
46029;DHT22;31763;48.180;7.904;2023-01-23T09:06:56;-0.30;99.90
46029;DHT22;31763;48.180;7.904;2023-01-23T09:09:22;-0.20;99.90
46029;DHT22;31763;48.180;7.904;2023-01-23T09:11:49;-0.20;99.90
46029;DHT22;31763;48.180;7.904;2023-01-23T09:14:16;-0.10;99.90
46029;DHT22;31763;48.180;7.904;2023-01-23T09:16:43;-0.10;99.90
46029;DHT22;31763;48.180;7.904;2023-01-23T09:19:10;-0.10;99.90
46029;DHT22;31763;48.180;7.904;2023-01-23T09:21:38;-0.10;99.90
46029;DHT22;31763;48.180;7.904;2023-01-23T09:24:05;-0.30;99.90
46029;DHT22;31763;48.180;7.904;2023-01-23T09:26:32;-0.10;99.90
46029;DHT22;31763;48.180;7.904;2023-01-23T09:28:59;-0.20;99.90
46029;DHT22;31763;48.180;7.904;2023-01-23T09:31:25;0.00;99.90
46029;DHT22;31763;48.180;7.904;2023-01-23T09:33:52;-0.10;99.90
46029;DHT22;31763;48.180;7.904;2023-01-23T09:36:19;-0.20;99.90
46029;DHT22;31763;48.180;7.904;2023-01-23T09:39:06;-0.10;99.90
46029;DHT22;31763;48.180;7.904;2023-01-23T09:41:33;0.00;99.90
46029;DHT22;31763;48.180;7.904;2023-01-23T09:44:11;-0.10;99.90
46029;DHT22;31763;48.180;7.904;2023-01-23T09:46:50;-0.20;99.90
46029;DHT22;31763;48.180;7.904;2023-01-23T09:49:24;-0.20;99.90
46029;DHT22;31763;48.180;7.904;2023-01-23T09:52:16;-0.20;99.90
46029;DHT22;31763;48.180;7.904;2023-01-23T09:54:59;-0.10;99.90
46029;DHT22;31763;48.180;7.904;2023-01-23T09:57:50;-0.10;99.90
46029;DHT22;31763;48.180;7.904;2023-01-23T10:00:24;-0.20;99.90
46029;DHT22;31763;48.180;7.904;2023-01-23T10:02:57;-0.20;99.90
46029;DHT22;31763;48.180;7.904;2023-01-23T10:11:23;-0.10;99.90
46029;DHT22;31763;48.180;7.904;2023-01-23T10:16:55;0.00;99.90
46029;DHT22;31763;48.180;7.904;2023-01-23T10:22:54;0.10;99.90
46029;DHT22;31763;48.180;7.904;2023-01-23T10:25:28;0.10;99.90
46029;DHT22;31763;48.180;7.904;2023-01-23T10:30:59;0.10;99.90
46029;DHT22;31763;48.180;7.904;2023-01-23T10:34:07;0.20;99.90
46029;DHT22;31763;48.180;7.904;2023-01-23T10:36:48;0.30;99.90
46029;DHT22;31763;48.180;7.904;2023-01-23T10:39:28;0.30;99.90
46029;DHT22;31763;48.180;7.904;2023-01-23T10:41:58;0.20;99.90
46029;DHT22;31763;48.180;7.904;2023-01-23T10:44:28;0.10;99.90
46029;DHT22;31763;48.180;7.904;2023-01-23T10:46:58;0.00;99.90
46029;DHT22;31763;48.180;7.904;2023-01-23T10:49:44;0.10;99.90
46029;DHT22;31763;48.180;7.904;2023-01-23T10:52:41;0.10;99.90
46029;DHT22;31763;48.180;7.904;2023-01-23T10:57:48;0.10;99.90
46029;DHT22;31763;48.180;7.904;2023-01-23T11:00:34;0.10;99.90
46029;DHT22;31763;48.180;7.904;2023-01-23T11:06:15;0.20;99.90
46029;DHT22;31763;48.180;7.904;2023-01-23T11:08:54;0.20;99.90
46029;DHT22;31763;48.180;7.904;2023-01-23T11:11:25;0.10;99.90
46029;DHT22;31763;48.180;7.904;2023-01-23T11:14:11;0.10;99.90
46029;DHT22;31763;48.180;7.904;2023-01-23T11:16:39;0.10;99.90
46029;DHT22;31763;48.180;7.904;2023-01-23T11:21:35;0.30;99.90
46029;DHT22;31763;48.180;7.904;2023-01-23T11:24:34;0.20;99.90
46029;DHT22;31763;48.180;7.904;2023-01-23T11:27:16;0.30;99.90
46029;DHT22;31763;48.180;7.904;2023-01-23T11:32:57;0.30;99.90
46029;DHT22;31763;48.180;7.904;2023-01-23T11:36:01;0.20;99.90
46029;DHT22;31763;48.180;7.904;2023-01-23T11:38:41;0.30;99.90
46029;DHT22;31763;48.180;7.904;2023-01-23T11:41:25;0.20;99.90
46029;DHT22;31763;48.180;7.904;2023-01-23T11:43:54;0.30;99.90
46029;DHT22;31763;48.180;7.904;2023-01-23T11:52:30;0.40;99.90
46029;DHT22;31763;48.180;7.904;2023-01-23T11:55:29;0.40;99.90
46029;DHT22;31763;48.180;7.904;2023-01-23T12:07:21;0.30;99.90
46029;DHT22;31763;48.180;7.904;2023-01-23T12:16:21;0.50;99.90
46029;DHT22;31763;48.180;7.904;2023-01-23T12:27:43;0.30;99.90
46029;DHT22;31763;48.180;7.904;2023-01-23T12:36:30;0.30;99.90
46029;DHT22;31763;48.180;7.904;2023-01-23T12:42:21;0.30;99.90
46029;DHT22;31763;48.180;7.904;2023-01-23T12:45:05;0.30;99.90
46029;DHT22;31763;48.180;7.904;2023-01-23T12:53:17;0.40;99.90
46029;DHT22;31763;48.180;7.904;2023-01-23T12:58:24;0.40;99.90
46029;DHT22;31763;48.180;7.904;2023-01-23T13:04:02;0.40;99.90
46029;DHT22;31763;48.180;7.904;2023-01-23T13:07:06;0.30;99.90
46029;DHT22;31763;48.180;7.904;2023-01-23T13:12:28;0.40;99.90
46029;DHT22;31763;48.180;7.904;2023-01-23T13:18:14;0.40;99.90
46029;DHT22;31763;48.180;7.904;2023-01-23T13:20:58;0.30;99.90
46029;DHT22;31763;48.180;7.904;2023-01-23T13:23:44;0.30;99.90
46029;DHT22;31763;48.180;7.904;2023-01-23T13:28:42;0.40;99.90
46029;DHT22;31763;48.180;7.904;2023-01-23T13:31:40;0.50;99.90
46029;DHT22;31763;48.180;7.904;2023-01-23T13:51:26;0.40;99.90
46029;DHT22;31763;48.180;7.904;2023-01-23T13:54:15;0.40;99.90
46029;DHT22;31763;48.180;7.904;2023-01-23T13:57:21;0.40;99.90
46029;DHT22;31763;48.180;7.904;2023-01-23T14:00:03;0.40;99.90
46029;DHT22;31763;48.180;7.904;2023-01-23T14:02:54;0.40;99.90
46029;DHT22;31763;48.180;7.904;2023-01-23T14:06:05;0.40;99.90
46029;DHT22;31763;48.180;7.904;2023-01-23T14:08:50;0.40;99.90
46029;DHT22;31763;48.180;7.904;2023-01-23T14:11:36;0.30;99.90
46029;DHT22;31763;48.180;7.904;2023-01-23T14:14:19;0.30;99.90
46029;DHT22;31763;48.180;7.904;2023-01-23T14:17:22;0.30;99.90
46029;DHT22;31763;48.180;7.904;2023-01-23T14:20:16;0.40;99.90
46029;DHT22;31763;48.180;7.904;2023-01-23T14:22:58;0.40;99.90
46029;DHT22;31763;48.180;7.904;2023-01-23T14:25:26;0.40;99.90
46029;DHT22;31763;48.180;7.904;2023-01-23T14:28:05;0.40;99.90
46029;DHT22;31763;48.180;7.904;2023-01-23T14:30:32;0.40;99.90
46029;DHT22;31763;48.180;7.904;2023-01-23T14:32:58;0.50;99.90
46029;DHT22;31763;48.180;7.904;2023-01-23T14:35:32;0.50;99.90
46029;DHT22;31763;48.180;7.904;2023-01-23T14:38:01;0.50;99.90
46029;DHT22;31763;48.180;7.904;2023-01-23T14:40:31;0.60;99.90
46029;DHT22;31763;48.180;7.904;2023-01-23T14:43:23;0.60;99.90
46029;DHT22;31763;48.180;7.904;2023-01-23T14:46:12;0.50;99.90
46029;DHT22;31763;48.180;7.904;2023-01-23T14:48:44;0.60;99.90
46029;DHT22;31763;48.180;7.904;2023-01-23T14:53:59;0.50;99.90
46029;DHT22;31763;48.180;7.904;2023-01-23T14:56:33;0.50;99.90
46029;DHT22;31763;48.180;7.904;2023-01-23T14:59:04;0.50;99.90
46029;DHT22;31763;48.180;7.904;2023-01-23T15:01:33;0.50;99.90
46029;DHT22;31763;48.180;7.904;2023-01-23T15:04:17;0.60;99.90
46029;DHT22;31763;48.180;7.904;2023-01-23T15:06:51;0.60;99.90
46029;DHT22;31763;48.180;7.904;2023-01-23T15:09:29;0.60;99.90
46029;DHT22;31763;48.180;7.904;2023-01-23T15:12:14;0.70;99.90
46029;DHT22;31763;48.180;7.904;2023-01-23T15:14:42;0.70;99.90
46029;DHT22;31763;48.180;7.904;2023-01-23T15:17:18;0.60;99.90
46029;DHT22;31763;48.180;7.904;2023-01-23T15:19:50;0.50;99.90
46029;DHT22;31763;48.180;7.904;2023-01-23T15:22:27;0.50;99.90
46029;DHT22;31763;48.180;7.904;2023-01-23T15:24:55;0.50;99.90
46029;DHT22;31763;48.180;7.904;2023-01-23T15:33:02;0.60;99.90
46029;DHT22;31763;48.180;7.904;2023-01-23T15:35:37;0.60;99.90
46029;DHT22;31763;48.180;7.904;2023-01-23T15:38:04;0.50;99.90
46029;DHT22;31763;48.180;7.904;2023-01-23T15:40:35;0.60;99.90
46029;DHT22;31763;48.180;7.904;2023-01-23T15:43:14;0.60;99.90
46029;DHT22;31763;48.180;7.904;2023-01-23T15:45:45;0.60;99.90
46029;DHT22;31763;48.180;7.904;2023-01-23T15:48:12;0.60;99.90
46029;DHT22;31763;48.180;7.904;2023-01-23T15:50:39;0.60;99.90
46029;DHT22;31763;48.180;7.904;2023-01-23T15:53:12;0.60;99.90
46029;DHT22;31763;48.180;7.904;2023-01-23T15:55:40;0.60;99.90
46029;DHT22;31763;48.180;7.904;2023-01-23T15:58:12;0.60;99.90
46029;DHT22;31763;48.180;7.904;2023-01-23T16:00:40;0.70;99.90
46029;DHT22;31763;48.180;7.904;2023-01-23T16:03:07;0.70;99.90
46029;DHT22;31763;48.180;7.904;2023-01-23T16:05:35;0.70;99.90
46029;DHT22;31763;48.180;7.904;2023-01-23T16:08:04;0.70;99.90
46029;DHT22;31763;48.180;7.904;2023-01-23T16:10:36;0.60;99.90
46029;DHT22;31763;48.180;7.904;2023-01-23T16:13:04;0.70;99.90
46029;DHT22;31763;48.180;7.904;2023-01-23T16:15:34;0.60;99.90
46029;DHT22;31763;48.180;7.904;2023-01-23T16:18:02;0.60;99.90
46029;DHT22;31763;48.180;7.904;2023-01-23T16:20:35;0.60;99.90
46029;DHT22;31763;48.180;7.904;2023-01-23T16:23:21;0.70;99.90
46029;DHT22;31763;48.180;7.904;2023-01-23T16:25:50;0.60;99.90
46029;DHT22;31763;48.180;7.904;2023-01-23T16:28:20;0.60;99.90
46029;DHT22;31763;48.180;7.904;2023-01-23T16:30:49;0.60;99.90
46029;DHT22;31763;48.180;7.904;2023-01-23T16:33:17;0.70;99.90
46029;DHT22;31763;48.180;7.904;2023-01-23T16:35:45;0.60;99.90
46029;DHT22;31763;48.180;7.904;2023-01-23T16:38:24;0.60;99.90
46029;DHT22;31763;48.180;7.904;2023-01-23T16:40:54;0.70;99.90
46029;DHT22;31763;48.180;7.904;2023-01-23T16:43:25;0.70;99.90
46029;DHT22;31763;48.180;7.904;2023-01-23T16:45:52;0.70;99.90
46029;DHT22;31763;48.180;7.904;2023-01-23T16:48:22;0.60;99.90
46029;DHT22;31763;48.180;7.904;2023-01-23T16:50:58;0.70;99.90
46029;DHT22;31763;48.180;7.904;2023-01-23T16:53:32;0.70;99.90
46029;DHT22;31763;48.180;7.904;2023-01-23T16:56:02;0.70;99.90
46029;DHT22;31763;48.180;7.904;2023-01-23T16:58:48;0.70;99.90
46029;DHT22;31763;48.180;7.904;2023-01-23T17:01:20;0.70;99.90
46029;DHT22;31763;48.180;7.904;2023-01-23T17:03:56;0.70;99.90
46029;DHT22;31763;48.180;7.904;2023-01-23T17:06:25;0.70;99.90
46029;DHT22;31763;48.180;7.904;2023-01-23T17:08:52;0.70;99.90
46029;DHT22;31763;48.180;7.904;2023-01-23T17:11:23;0.70;99.90
46029;DHT22;31763;48.180;7.904;2023-01-23T17:14:00;0.80;99.90
46029;DHT22;31763;48.180;7.904;2023-01-23T17:16:29;0.70;99.90
46029;DHT22;31763;48.180;7.904;2023-01-23T17:18:58;0.70;99.90
46029;DHT22;31763;48.180;7.904;2023-01-23T17:21:31;0.70;99.90
46029;DHT22;31763;48.180;7.904;2023-01-23T17:23:58;0.80;99.90
46029;DHT22;31763;48.180;7.904;2023-01-23T17:26:25;0.80;99.90
46029;DHT22;31763;48.180;7.904;2023-01-23T17:28:52;0.70;99.90
46029;DHT22;31763;48.180;7.904;2023-01-23T17:31:22;0.70;99.90
46029;DHT22;31763;48.180;7.904;2023-01-23T17:33:50;0.80;99.90
46029;DHT22;31763;48.180;7.904;2023-01-23T17:36:18;0.80;99.90
46029;DHT22;31763;48.180;7.904;2023-01-23T17:38:45;0.80;99.90
46029;DHT22;31763;48.180;7.904;2023-01-23T17:41:15;0.80;99.90
46029;DHT22;31763;48.180;7.904;2023-01-23T17:43:42;0.80;99.90
46029;DHT22;31763;48.180;7.904;2023-01-23T17:46:19;0.70;99.90
46029;DHT22;31763;48.180;7.904;2023-01-23T17:48:47;0.70;99.90
46029;DHT22;31763;48.180;7.904;2023-01-23T17:51:17;0.80;99.90
46029;DHT22;31763;48.180;7.904;2023-01-23T17:53:44;0.80;99.90
46029;DHT22;31763;48.180;7.904;2023-01-23T17:56:11;0.70;99.90
46029;DHT22;31763;48.180;7.904;2023-01-23T17:58:38;0.80;99.90
46029;DHT22;31763;48.180;7.904;2023-01-23T18:01:22;0.80;99.90
46029;DHT22;31763;48.180;7.904;2023-01-23T18:03:51;0.70;99.90
46029;DHT22;31763;48.180;7.904;2023-01-23T18:06:18;0.70;99.90
46029;DHT22;31763;48.180;7.904;2023-01-23T18:08:45;0.80;99.90
46029;DHT22;31763;48.180;7.904;2023-01-23T18:11:20;0.80;99.90
46029;DHT22;31763;48.180;7.904;2023-01-23T18:16:25;0.80;99.90